Time;durP1;ratioP1;P1;durP2;ratioP2;P2;SDS_P1;SDS_P2;PMS_P1;PMS_P2;Temp;Humidity;BMP_temperature;BMP_pressure;BME280_temperature;BME280_humidity;BME280_pressure;Samples;Min_cycle;Max_cycle;Signal;HPM_P1;HPM_P2
2023/06/11 00:02:11;;;;;;;;;;;;;;;19.04;59.16;97976.09;5068818;28;20329;-60
2023/06/11 00:04:39;;;;;;;;;;;;;;;19.11;59.22;97967.16;5092760;28;19933;-60
2023/06/11 00:07:09;;;;;;;;;;;;;;;19.11;58.96;97972.66;5111163;27;19926;-60
2023/06/11 00:09:37;;;;;;;;;;;;;;;19.18;58.51;97974.78;5088410;28;19921;-61
2023/06/11 00:12:05;;;;;;;;;;;;;;;18.93;59.14;97972.34;5082101;28;19947;-60
2023/06/11 00:14:33;;;;;;;;;;;;;;;18.82;59.59;97972.16;5106709;28;19928;-61
2023/06/11 00:17:03;;;;;;;;;;;;;;;18.93;59.34;97968.81;5089806;28;19924;-60
2023/06/11 00:19:32;;;;;;;;;;;;;;;18.93;59.21;97968.81;5093735;28;19920;-61
2023/06/11 00:22:02;;;;;;;;;;;;;;;18.88;59.25;97969.91;5099422;28;19932;-61
2023/06/11 00:24:32;;;;;;;;;;;;;;;18.85;59.48;97981.63;5094318;28;19966;-61
2023/06/11 00:27:03;;;;;;;;;;;;;;;18.88;59.39;97978.16;5095688;28;19973;-61
2023/06/11 00:29:30;;;;;;;;;;;;;;;18.89;59.26;97976.19;5094170;28;19965;-61
2023/06/11 00:31:58;;;;;;;;;;;;;;;18.80;59.38;97981.91;5080027;28;19920;-62
2023/06/11 00:34:26;;;;;;;;;;;;;;;18.62;60.03;97978.78;5089080;28;20361;-61
2023/06/11 00:36:54;;;;;;;;;;;;;;;18.52;60.51;97976.63;5072105;28;19924;-62
2023/06/11 00:39:22;;;;;;;;;;;;;;;18.59;60.39;97983.09;5078516;28;19989;-61
2023/06/11 00:41:53;;;;;;;;;;;;;;;18.53;60.15;97978.22;5113718;28;19938;-60
2023/06/11 00:44:21;;;;;;;;;;;;;;;18.46;60.37;97978.06;5097564;28;19928;-60
2023/06/11 00:46:52;;;;;;;;;;;;;;;18.43;60.57;97971.34;5066866;28;19924;-61
2023/06/11 00:49:20;;;;;;;;;;;;;;;18.56;60.47;97972.00;5098004;28;19939;-61
2023/06/11 00:51:48;;;;;;;;;;;;;;;18.45;60.73;97976.47;5091437;28;19943;-60
2023/06/11 00:54:17;;;;;;;;;;;;;;;18.33;60.91;97983.72;5114532;28;19932;-60
2023/06/11 00:56:48;;;;;;;;;;;;;;;18.39;60.72;97977.94;5092608;28;19931;-60
2023/06/11 00:59:19;;;;;;;;;;;;;;;18.37;60.91;97974.72;5086801;28;20003;-60
2023/06/11 01:01:51;;;;;;;;;;;;;;;18.41;60.95;97981.09;5070163;28;19931;-60
2023/06/11 01:04:23;;;;;;;;;;;;;;;18.41;60.85;97981.09;5085017;28;20384;-60
2023/06/11 01:06:52;;;;;;;;;;;;;;;18.46;60.55;97978.06;5097399;28;19924;-61
2023/06/11 01:09:21;;;;;;;;;;;;;;;18.52;60.67;97968.38;5099431;28;19972;-60
2023/06/11 01:11:53;;;;;;;;;;;;;;;18.40;60.53;97974.81;5080693;28;19981;-60
2023/06/11 01:14:22;;;;;;;;;;;;;;;18.50;60.91;97984.44;5076722;28;19924;-61
2023/06/11 01:16:53;;;;;;;;;;;;;;;18.54;60.49;97988.06;5075442;28;19927;-60
2023/06/11 01:19:28;;;;;;;;;;;;;;;18.44;60.72;97985.91;5082240;28;19931;-61
2023/06/11 01:21:59;;;;;;;;;;;;;;;18.21;61.02;97992.06;5092261;28;19919;-61
2023/06/11 01:24:33;;;;;;;;;;;;;;;18.29;61.16;97993.84;5113692;27;19927;-62
2023/06/11 01:27:05;;;;;;;;;;;;;;;18.28;61.32;97992.25;5110099;27;19924;-60
2023/06/11 01:29:35;;;;;;;;;;;;;;;18.38;60.84;97993.63;5111639;27;19932;-61
2023/06/11 01:32:04;;;;;;;;;;;;;;;18.35;60.99;97988.84;5078490;28;20276;-61
2023/06/11 01:34:32;;;;;;;;;;;;;;;18.40;60.91;97991.31;5072314;28;19951;-61
2023/06/11 01:37:04;;;;;;;;;;;;;;;18.43;60.89;97990.59;5083102;28;20275;-61
2023/06/11 01:39:32;;;;;;;;;;;;;;;18.45;60.69;97988.28;5121651;27;19997;-61
2023/06/11 01:42:05;;;;;;;;;;;;;;;18.46;60.88;97989.06;5079702;28;19920;-61
2023/06/11 01:44:36;;;;;;;;;;;;;;;18.39;60.99;97994.44;5112828;27;20311;-61
2023/06/11 01:47:04;;;;;;;;;;;;;;;18.54;60.73;97993.59;5080246;28;19920;-61
2023/06/11 01:49:32;;;;;;;;;;;;;;;18.38;61.33;97990.88;5118339;27;20022;-63
2023/06/11 01:52:00;;;;;;;;;;;;;;;18.45;61.27;97990.25;5080934;28;19963;-61
2023/06/11 01:54:28;;;;;;;;;;;;;;;18.44;60.78;97994.94;5086579;28;19926;-62
2023/06/11 01:56:56;;;;;;;;;;;;;;;18.29;60.80;97996.59;5084435;28;20437;-63
2023/06/11 01:59:25;;;;;;;;;;;;;;;18.33;60.95;97993.91;5117771;27;19919;-61
2023/06/11 02:01:54;;;;;;;;;;;;;;;18.32;61.05;98001.38;5072810;28;19934;-61
2023/06/11 02:04:22;;;;;;;;;;;;;;;18.42;61.03;97990.94;5072442;28;20819;-62
2023/06/11 02:06:51;;;;;;;;;;;;;;;18.39;60.76;97994.44;5112260;27;19924;-61
2023/06/11 02:09:19;;;;;;;;;;;;;;;18.38;60.83;97990.88;5071217;28;20030;-61
2023/06/11 02:11:47;;;;;;;;;;;;;;;18.23;61.11;97992.53;5082734;28;20020;-61
2023/06/11 02:14:14;;;;;;;;;;;;;;;18.21;61.20;97992.06;5068621;28;19960;-61
2023/06/11 02:16:42;;;;;;;;;;;;;;;18.28;61.74;97992.25;5088144;28;19986;-62
2023/06/11 02:19:11;;;;;;;;;;;;;;;18.18;61.46;97992.00;5095077;28;19927;-61
2023/06/11 02:21:39;;;;;;;;;;;;;;;18.16;61.94;97995.09;5092792;28;19928;-62
2023/06/11 02:24:07;;;;;;;;;;;;;;;18.16;61.86;97994.31;5094959;28;19920;-61
2023/06/11 02:26:35;;;;;;;;;;;;;;;17.99;61.96;97998.25;5099332;28;20365;-61
2023/06/11 02:29:03;;;;;;;;;;;;;;;17.99;62.20;97998.25;5090370;28;19935;-61
2023/06/11 02:31:32;;;;;;;;;;;;;;;18.04;62.14;97995.22;5090113;28;20289;-61
2023/06/11 02:34:02;;;;;;;;;;;;;;;17.89;62.46;98002.34;5092031;28;20090;-62
2023/06/11 02:36:31;;;;;;;;;;;;;;;17.94;62.42;97998.53;5065875;28;20282;-62
2023/06/11 02:38:59;;;;;;;;;;;;;;;18.03;62.61;97999.13;5064720;28;20349;-61
2023/06/11 02:41:27;;;;;;;;;;;;;;;18.13;62.22;97995.84;5094621;28;19932;-61
2023/06/11 02:43:55;;;;;;;;;;;;;;;18.04;62.72;97992.47;5061614;28;19920;-63
2023/06/11 02:46:23;;;;;;;;;;;;;;;17.88;62.93;97994.47;5068219;28;19924;-61
2023/06/11 02:48:51;;;;;;;;;;;;;;;17.86;62.97;97991.28;5078390;28;19920;-62
2023/06/11 02:51:19;;;;;;;;;;;;;;;17.69;63.63;97995.97;5078015;28;20719;-62
2023/06/11 02:53:50;;;;;;;;;;;;;;;17.76;63.55;97987.94;5080418;28;19927;-61
2023/06/11 02:56:18;;;;;;;;;;;;;;;17.85;63.28;97995.19;5062387;28;19959;-61
2023/06/11 02:58:47;;;;;;;;;;;;;;;17.66;63.99;97996.69;5098876;28;19920;-61
2023/06/11 03:01:16;;;;;;;;;;;;;;;17.73;63.97;97996.06;5069801;28;20554;-62
2023/06/11 03:03:44;;;;;;;;;;;;;;;17.71;63.66;97993.66;5072203;28;19928;-61
2023/06/11 03:06:16;;;;;;;;;;;;;;;17.77;63.76;97996.97;5090479;28;19929;-62
2023/06/11 03:08:43;;;;;;;;;;;;;;;17.73;63.65;97996.06;5070809;28;19927;-61
2023/06/11 03:11:13;;;;;;;;;;;;;;;17.67;63.75;98000.22;5057455;28;19970;-61
2023/06/11 03:13:45;;;;;;;;;;;;;;;17.59;64.04;98001.22;5089939;28;19928;-61
2023/06/11 03:16:12;;;;;;;;;;;;;;;17.49;64.41;97997.03;5084016;28;19921;-62
2023/06/11 03:18:40;;;;;;;;;;;;;;;17.51;64.53;98005.72;5062878;28;19920;-61
2023/06/11 03:21:08;;;;;;;;;;;;;;;17.43;64.84;98001.22;5063608;28;20289;-61
2023/06/11 03:23:36;;;;;;;;;;;;;;;17.46;64.74;98004.03;5065941;28;20431;-61
2023/06/11 03:26:04;;;;;;;;;;;;;;;17.44;64.65;98011.84;5063498;28;19932;-62
2023/06/11 03:28:39;;;;;;;;;;;;;;;17.46;64.74;98009.53;5063199;28;19920;-61
2023/06/11 03:31:07;;;;;;;;;;;;;;;17.44;64.85;98011.03;5057446;28;20011;-61
2023/06/11 03:33:35;;;;;;;;;;;;;;;17.41;64.56;98014.47;5088895;28;19943;-61
2023/06/11 03:36:05;;;;;;;;;;;;;;;17.32;64.97;98011.13;5074878;28;20362;-62
2023/06/11 03:38:33;;;;;;;;;;;;;;;17.38;65.41;98013.25;5055433;28;20011;-61
2023/06/11 03:41:02;;;;;;;;;;;;;;;17.43;64.93;98004.75;5091047;28;19964;-62
2023/06/11 03:43:32;;;;;;;;;;;;;;;17.27;65.35;98007.50;5087289;28;19921;-61
2023/06/11 03:46:02;;;;;;;;;;;;;;;17.39;65.30;98014.84;5085691;28;19920;-62
2023/06/11 03:48:30;;;;;;;;;;;;;;;17.32;65.11;98011.94;5055601;28;20016;-62
2023/06/11 03:50:57;;;;;;;;;;;;;;;17.33;64.95;98007.22;5056302;28;19925;-62
2023/06/11 03:53:26;;;;;;;;;;;;;;;17.37;65.22;98005.38;5089710;28;20362;-61
2023/06/11 03:55:54;;;;;;;;;;;;;;;17.24;65.38;98019.16;5066101;28;19932;-69
2023/06/11 03:58:22;;;;;;;;;;;;;;;17.23;65.24;98016.78;5073756;28;20320;-61
2023/06/11 04:00:51;;;;;;;;;;;;;;;17.17;65.48;98018.97;5086092;28;19921;-61
2023/06/11 04:03:21;;;;;;;;;;;;;;;17.15;65.38;98020.47;5065120;28;19925;-62
2023/06/11 04:05:49;;;;;;;;;;;;;;;17.14;65.60;98016.13;5067525;28;19926;-61
2023/06/11 04:08:17;;;;;;;;;;;;;;;17.27;65.00;98018.47;5062222;28;19925;-61
2023/06/11 04:10:45;;;;;;;;;;;;;;;17.19;65.02;98021.38;5102542;28;19921;-61
2023/06/11 04:13:13;;;;;;;;;;;;;;;17.06;65.64;98020.66;5086494;28;20310;-62
2023/06/11 04:15:41;;;;;;;;;;;;;;;17.13;65.15;98018.09;5087094;28;19920;-62
2023/06/11 04:18:11;;;;;;;;;;;;;;;17.18;64.84;98028.00;5090116;28;19920;-61
2023/06/11 04:20:40;;;;;;;;;;;;;;;17.03;65.39;98024.09;5091752;28;20031;-61
2023/06/11 04:23:08;;;;;;;;;;;;;;;17.01;65.06;98027.19;5076027;28;19925;-61
2023/06/11 04:25:39;;;;;;;;;;;;;;;17.04;64.99;98025.66;5066294;28;20358;-61
2023/06/11 04:28:09;;;;;;;;;;;;;;;17.12;64.88;98032.16;5057579;28;20298;-62
2023/06/11 04:30:39;;;;;;;;;;;;;;;17.19;64.63;98033.16;5082197;28;19955;-61
2023/06/11 04:33:10;;;;;;;;;;;;;;;17.19;64.56;98033.16;5094583;28;19920;-61
2023/06/11 04:35:40;;;;;;;;;;;;;;;17.34;64.11;98030.78;5093079;28;19925;-61
2023/06/11 04:38:08;;;;;;;;;;;;;;;17.35;63.93;98024.13;5087712;28;19947;-61
2023/06/11 04:40:38;;;;;;;;;;;;;;;17.44;63.85;98030.25;5066384;28;19920;-61
2023/06/11 04:43:07;;;;;;;;;;;;;;;17.54;63.31;98040.72;5064602;28;19921;-61
2023/06/11 04:45:38;;;;;;;;;;;;;;;17.63;63.22;98030.38;5064836;28;20011;-61
2023/06/11 04:48:09;;;;;;;;;;;;;;;17.70;62.54;98033.28;5107834;27;20019;-61
2023/06/11 04:50:38;;;;;;;;;;;;;;;17.73;62.50;98035.34;5081844;28;19920;-61
2023/06/11 04:53:12;;;;;;;;;;;;;;;17.71;62.06;98021.13;5067976;28;19953;-62
2023/06/11 04:55:42;;;;;;;;;;;;;;;17.71;62.16;98032.13;5071439;28;20357;-61
2023/06/11 04:58:10;;;;;;;;;;;;;;;17.77;61.89;98030.72;5067848;28;19925;-61
2023/06/11 05:00:39;;;;;;;;;;;;;;;17.70;62.22;98038.78;5073433;28;20017;-61
2023/06/11 05:03:09;;;;;;;;;;;;;;;17.87;61.58;98026.66;5077642;28;19956;-61
2023/06/11 05:05:38;;;;;;;;;;;;;;;17.85;61.71;98037.22;5069140;28;19929;-61
2023/06/11 05:08:06;;;;;;;;;;;;;;;17.97;61.72;98033.56;5073939;28;19947;-61
2023/06/11 05:10:37;;;;;;;;;;;;;;;18.03;61.82;98032.94;5079000;28;20365;-62
2023/06/11 05:13:05;;;;;;;;;;;;;;;18.12;61.09;98035.50;5064032;28;19928;-61
2023/06/11 05:15:33;;;;;;;;;;;;;;;18.25;61.53;98033.41;5073352;28;19921;-61
2023/06/11 05:18:01;;;;;;;;;;;;;;;18.22;60.67;98031.41;5100370;28;19935;-61
2023/06/11 05:20:30;;;;;;;;;;;;;;;18.27;60.38;98025.63;5096322;27;19929;-61
2023/06/11 05:22:59;;;;;;;;;;;;;;;18.34;60.65;98039.50;5070107;28;20396;-61
2023/06/11 05:25:30;;;;;;;;;;;;;;;18.35;59.83;98037.56;5062623;28;20289;-61
2023/06/11 05:28:02;;;;;;;;;;;;;;;18.29;59.95;98035.09;5082576;28;19929;-62
2023/06/11 05:30:36;;;;;;;;;;;;;;;18.37;59.33;98032.47;5109189;27;19924;-61
2023/06/11 05:33:06;;;;;;;;;;;;;;;18.37;59.67;98032.47;5071032;28;19948;-61
2023/06/11 05:35:35;;;;;;;;;;;;;;;18.37;59.34;98032.47;5097591;27;19937;-61
2023/06/11 05:38:03;;;;;;;;;;;;;;;18.41;59.86;98031.41;5070871;28;19921;-62
2023/06/11 05:40:31;;;;;;;;;;;;;;;18.39;59.65;98028.22;5078690;28;19920;-61
2023/06/11 05:42:59;;;;;;;;;;;;;;;18.55;60.03;98037.22;5086906;28;19920;-61
2023/06/11 05:45:30;;;;;;;;;;;;;;;18.62;59.12;98031.06;5080077;28;19925;-61
2023/06/11 05:47:58;;;;;;;;;;;;;;;18.75;58.84;98035.31;5063351;28;19921;-61
2023/06/11 05:50:27;;;;;;;;;;;;;;;18.74;58.34;98030.94;5093814;28;19920;-61
2023/06/11 05:52:57;;;;;;;;;;;;;;;18.84;58.25;98038.63;5086443;28;19929;-61
2023/06/11 05:55:24;;;;;;;;;;;;;;;19.02;57.88;98038.22;5099727;28;19920;-61
2023/06/11 05:57:53;;;;;;;;;;;;;;;19.05;56.78;98040.22;5087176;28;20038;-61
2023/06/11 06:00:21;;;;;;;;;;;;;;;18.98;57.34;98043.63;5060392;28;20366;-61
2023/06/11 06:02:55;;;;;;;;;;;;;;;18.95;56.38;98038.84;5061987;28;19928;-62
2023/06/11 06:05:27;;;;;;;;;;;;;;;19.09;56.27;98057.63;5071653;28;19920;-61
2023/06/11 06:07:56;;;;;;;;;;;;;;;19.07;56.71;98049.72;5069460;28;19924;-61
2023/06/11 06:10:23;;;;;;;;;;;;;;;19.26;55.69;98040.63;5072977;28;19931;-61
2023/06/11 06:12:52;;;;;;;;;;;;;;;19.50;55.93;98055.25;5078327;28;19920;-62
2023/06/11 06:15:20;;;;;;;;;;;;;;;19.37;55.89;98052.63;5064124;28;19947;-61
2023/06/11 06:17:47;;;;;;;;;;;;;;;19.53;55.19;98058.03;5054813;28;20305;-61
2023/06/11 06:20:26;;;;;;;;;;;;;;;19.53;54.34;98046.22;5097929;28;20422;-61
2023/06/11 06:22:54;;;;;;;;;;;;;;;19.43;54.33;98049.56;5064053;28;20362;-62
2023/06/11 06:25:24;;;;;;;;;;;;;;;19.57;54.21;98047.88;5097195;27;19927;-61
2023/06/11 06:27:53;;;;;;;;;;;;;;;19.54;54.74;98045.06;5062367;28;19927;-61
2023/06/11 06:30:21;;;;;;;;;;;;;;;19.66;54.09;98039.41;5082945;27;19933;-61
2023/06/11 06:32:49;;;;;;;;;;;;;;;19.69;54.13;98044.16;5083755;28;19936;-61
2023/06/11 06:35:18;;;;;;;;;;;;;;;19.81;54.16;98040.41;5068683;28;19924;-61
2023/06/11 06:37:47;;;;;;;;;;;;;;;19.99;54.04;98047.03;5060317;28;19982;-60
2023/06/11 06:40:15;;;;;;;;;;;;;;;20.02;53.67;98045.47;5085766;28;19928;-61
2023/06/11 06:42:43;;;;;;;;;;;;;;;20.09;53.60;98051.13;5094977;27;19982;-61
2023/06/11 06:45:16;;;;;;;;;;;;;;;20.22;53.65;98052.50;5087096;27;19920;-62
2023/06/11 06:47:44;;;;;;;;;;;;;;;20.46;51.89;98047.72;5071864;28;19967;-61
2023/06/11 06:50:12;;;;;;;;;;;;;;;20.46;52.00;98048.53;5081115;28;19920;-61
2023/06/11 06:52:43;;;;;;;;;;;;;;;20.64;52.48;98051.53;5083839;28;19921;-61
2023/06/11 06:55:13;;;;;;;;;;;;;;;20.54;52.38;98058.50;5093966;27;19920;-61
2023/06/11 06:57:41;;;;;;;;;;;;;;;20.56;51.66;98041.56;5070821;28;20003;-61
2023/06/11 07:00:10;;;;;;;;;;;;;;;20.68;52.03;98055.16;5061166;28;19927;-61
2023/06/11 07:02:38;;;;;;;;;;;;;;;20.68;50.76;98049.63;5077455;28;20008;-62
2023/06/11 07:05:07;;;;;;;;;;;;;;;20.77;50.61;98050.13;5094078;28;19928;-61
2023/06/11 07:07:35;;;;;;;;;;;;;;;20.87;50.90;98054.19;5086199;28;19921;-62
2023/06/11 07:10:04;;;;;;;;;;;;;;;21.10;50.31;98054.88;5070900;28;19932;-61
2023/06/11 07:12:33;;;;;;;;;;;;;;;21.10;50.40;98054.88;5073701;28;19920;-61
2023/06/11 07:15:01;;;;;;;;;;;;;;;21.15;50.51;98051.00;5074530;28;19920;-62
2023/06/11 07:17:31;;;;;;;;;;;;;;;21.28;49.24;98051.50;5071063;28;19920;-61
2023/06/11 07:19:59;;;;;;;;;;;;;;;21.45;48.51;98048.16;5096413;28;19920;-61
2023/06/11 07:22:27;;;;;;;;;;;;;;;21.36;48.77;98050.41;5080276;28;19928;-61
2023/06/11 07:24:56;;;;;;;;;;;;;;;21.41;48.42;98048.13;5107189;28;20349;-62
2023/06/11 07:27:24;;;;;;;;;;;;;;;21.57;48.46;98055.38;5074241;28;19969;-61
2023/06/11 07:29:54;;;;;;;;;;;;;;;21.65;48.24;98045.97;5103801;27;19938;-61
2023/06/11 07:32:21;;;;;;;;;;;;;;;21.57;47.10;98042.38;5081585;28;19964;-62
2023/06/11 07:34:52;;;;;;;;;;;;;;;21.64;46.92;98053.47;5077469;28;20350;-62
2023/06/11 07:37:20;;;;;;;;;;;;;;;21.73;47.25;98046.81;5072029;28;19931;-61
2023/06/11 07:39:49;;;;;;;;;;;;;;;21.96;45.87;98051.00;5082513;28;20014;-61
2023/06/11 07:42:20;;;;;;;;;;;;;;;22.05;45.77;98041.56;5070707;28;19951;-63
2023/06/11 07:44:48;;;;;;;;;;;;;;;21.86;45.45;98045.38;5083776;28;19941;-62
2023/06/11 07:47:17;;;;;;;;;;;;;;;22.01;45.33;98049.84;5078488;28;20266;-62
2023/06/11 07:49:45;;;;;;;;;;;;;;;22.14;44.84;98051.16;5087622;28;19920;-62
2023/06/11 07:52:13;;;;;;;;;;;;;;;22.29;45.56;98045.72;5087527;28;20006;-62
2023/06/11 07:54:42;;;;;;;;;;;;;;;22.28;45.19;98044.94;5084306;28;19924;-62
2023/06/11 07:57:12;;;;;;;;;;;;;;;22.47;44.21;98052.16;5093174;28;20331;-62
2023/06/11 07:59:43;;;;;;;;;;;;;;;22.53;43.55;98050.63;5082191;28;20010;-63
2023/06/11 08:02:11;;;;;;;;;;;;;;;22.54;43.69;98045.88;5078743;28;19920;-61
2023/06/11 08:04:40;;;;;;;;;;;;;;;22.65;43.17;98047.50;5095027;28;19933;-61
2023/06/11 08:07:08;;;;;;;;;;;;;;;22.58;41.95;98044.69;5073023;28;19963;-63
2023/06/11 08:09:36;;;;;;;;;;;;;;;22.85;42.22;98052.72;5084840;28;19970;-61
2023/06/11 08:12:04;;;;;;;;;;;;;;;22.74;41.81;98047.13;5094931;28;19964;-61
2023/06/11 08:14:32;;;;;;;;;;;;;;;22.73;41.90;98049.13;5068418;28;19921;-62
2023/06/11 08:17:00;;;;;;;;;;;;;;;22.68;42.98;98040.38;5077235;28;19986;-62
2023/06/11 08:19:28;;;;;;;;;;;;;;;22.81;43.26;98038.09;5085710;28;19928;-63
2023/06/11 08:22:00;;;;;;;;;;;;;;;22.89;42.23;98043.28;5090698;28;19920;-63
2023/06/11 08:24:28;;;;;;;;;;;;;;;22.97;40.60;98036.59;5085156;28;19928;-63
2023/06/11 08:26:56;;;;;;;;;;;;;;;23.07;39.77;98040.59;5082327;28;19932;-62
2023/06/11 08:29:24;;;;;;;;;;;;;;;23.09;40.41;98037.44;5081572;28;20372;-62
2023/06/11 08:31:52;;;;;;;;;;;;;;;23.08;40.65;98036.63;5079361;28;19928;-63
2023/06/11 08:34:22;;;;;;;;;;;;;;;23.14;39.66;98048.13;5084951;28;19940;-62
2023/06/11 08:36:50;;;;;;;;;;;;;;;23.12;39.98;98039.44;5084379;28;20502;-62
2023/06/11 08:39:19;;;;;;;;;;;;;;;23.14;38.54;98034.28;5088356;28;19946;-62
2023/06/11 08:41:47;;;;;;;;;;;;;;;23.35;38.98;98030.78;5082658;28;19928;-62
2023/06/11 08:44:15;;;;;;;;;;;;;;;23.47;39.36;98035.94;5104223;28;19927;-62
2023/06/11 08:46:44;;;;;;;;;;;;;;;23.45;37.60;98027.22;5090953;28;19927;-61
2023/06/11 08:49:14;;;;;;;;;;;;;;;23.69;37.21;98026.47;5101638;28;19921;-62
2023/06/11 08:51:42;;;;;;;;;;;;;;;23.61;35.35;98029.63;5068296;28;20014;-65
2023/06/11 08:54:10;;;;;;;;;;;;;;;23.51;35.84;98031.97;5079186;28;19956;-62
2023/06/11 08:56:39;;;;;;;;;;;;;;;23.67;34.48;98025.28;5086919;28;20516;-62
2023/06/11 08:59:07;;;;;;;;;;;;;;;23.81;34.24;98030.84;5073648;28;19921;-62
2023/06/11 09:01:35;;;;;;;;;;;;;;;23.67;34.04;98036.38;5073437;28;19923;-62
2023/06/11 09:04:03;;;;;;;;;;;;;;;23.62;32.83;98020.91;5073831;28;19924;-62
2023/06/11 09:06:34;;;;;;;;;;;;;;;23.68;34.35;98029.66;5084653;28;20028;-62
2023/06/11 09:09:02;;;;;;;;;;;;;;;23.76;33.90;98037.59;5083701;28;19920;-62
2023/06/11 09:11:33;;;;;;;;;;;;;;;23.78;34.64;98026.09;5087800;28;19974;-62
2023/06/11 09:14:02;;;;;;;;;;;;;;;23.75;33.68;98029.63;5077935;28;19920;-62
2023/06/11 09:16:37;;;;;;;;;;;;;;;23.68;32.90;98024.09;5081594;28;19950;-62
2023/06/11 09:19:05;;;;;;;;;;;;;;;23.90;34.38;98028.44;5102689;28;20384;-62
2023/06/11 09:21:33;;;;;;;;;;;;;;;23.89;33.49;98026.09;5083450;28;20382;-62
2023/06/11 09:24:06;;;;;;;;;;;;;;;23.83;33.52;98014.59;5091022;28;19959;-62
2023/06/11 09:26:34;;;;;;;;;;;;;;;23.85;31.40;98019.75;5099833;28;19920;-62
2023/06/11 09:29:04;;;;;;;;;;;;;;;23.93;31.10;98026.88;5088653;28;19942;-62
2023/06/11 09:31:32;;;;;;;;;;;;;;;23.95;30.55;98030.03;5090009;28;20306;-62
2023/06/11 09:34:06;;;;;;;;;;;;;;;23.99;30.66;98025.28;5080951;28;19920;-62
2023/06/11 09:36:34;;;;;;;;;;;;;;;23.94;31.55;98026.47;5091029;28;19993;-62
2023/06/11 09:39:02;;;;;;;;;;;;;;;24.19;32.89;98025.66;5087821;28;19973;-62
2023/06/11 09:41:31;;;;;;;;;;;;;;;24.36;30.57;98024.09;5089016;28;19924;-62
2023/06/11 09:44:00;;;;;;;;;;;;;;;24.20;29.55;98030.81;5093782;28;19963;-62
2023/06/11 09:46:29;;;;;;;;;;;;;;;24.19;30.25;98036.78;5073083;28;19924;-62
2023/06/11 09:48:57;;;;;;;;;;;;;;;24.28;29.78;98034.34;5103920;28;19920;-62
2023/06/11 09:51:25;;;;;;;;;;;;;;;24.17;30.31;98044.69;5115502;27;20290;-62
2023/06/11 09:53:53;;;;;;;;;;;;;;;24.26;30.21;98040.31;5110454;28;19927;-62
2023/06/11 09:56:21;;;;;;;;;;;;;;;24.31;30.07;98036.34;5092627;28;19924;-62
2023/06/11 09:58:50;;;;;;;;;;;;;;;24.56;29.35;98037.13;5091708;28;20416;-62
2023/06/11 10:01:18;;;;;;;;;;;;;;;24.41;29.40;98037.56;5089121;28;19921;-62
2023/06/11 10:03:47;;;;;;;;;;;;;;;24.39;29.09;98034.38;5093289;28;19920;-62
2023/06/11 10:06:18;;;;;;;;;;;;;;;24.43;30.01;98046.28;5092383;28;19923;-62
2023/06/11 10:08:48;;;;;;;;;;;;;;;24.35;29.30;98042.72;5094084;28;19920;-62
2023/06/11 10:11:17;;;;;;;;;;;;;;;24.46;29.48;98040.72;5079196;28;19939;-62
2023/06/11 10:13:46;;;;;;;;;;;;;;;24.36;30.37;98047.09;5089978;28;19926;-62
2023/06/11 10:16:14;;;;;;;;;;;;;;;24.37;29.71;98037.56;5093155;28;19955;-63
2023/06/11 10:18:41;;;;;;;;;;;;;;;24.66;29.23;98043.03;5085395;28;19920;-61
2023/06/11 10:21:10;;;;;;;;;;;;;;;24.47;27.90;98035.94;5093309;28;19920;-62
2023/06/11 10:23:39;;;;;;;;;;;;;;;24.45;27.94;98036.38;5093593;28;20012;-62
2023/06/11 10:26:07;;;;;;;;;;;;;;;24.60;28.15;98039.88;5086351;28;20319;-62
2023/06/11 10:28:37;;;;;;;;;;;;;;;24.65;28.09;98039.47;5089586;28;19942;-62
2023/06/11 10:31:05;;;;;;;;;;;;;;;24.37;28.57;98034.78;5084540;28;19951;-62
2023/06/11 10:33:51;;;;;;;;;;;;;;;24.58;28.21;98036.72;5074825;28;19927;-62
2023/06/11 10:36:24;;;;;;;;;;;;;;;24.60;29.87;98039.88;5084861;28;19924;-62
2023/06/11 10:39:04;;;;;;;;;;;;;;;24.68;28.35;98035.09;5087121;28;19920;-62
2023/06/11 10:41:32;;;;;;;;;;;;;;;24.69;24.63;98036.69;5107898;28;19974;-62
2023/06/11 10:44:00;;;;;;;;;;;;;;;24.65;26.17;98047.00;5088337;28;19928;-61
2023/06/11 10:46:28;;;;;;;;;;;;;;;24.63;26.67;98052.97;5080497;28;19950;-62
2023/06/11 10:48:56;;;;;;;;;;;;;;;24.58;27.10;98039.50;5091255;28;19924;-62
2023/06/11 10:51:25;;;;;;;;;;;;;;;24.56;28.17;98039.91;5087927;28;19920;-62
2023/06/11 10:53:55;;;;;;;;;;;;;;;24.69;28.26;98036.69;5090408;28;21403;-63
2023/06/11 10:56:23;;;;;;;;;;;;;;;24.70;28.71;98038.25;5092066;28;19924;-62
2023/06/11 10:58:51;;;;;;;;;;;;;;;24.87;29.05;98034.63;5079452;28;20388;-62
2023/06/11 11:01:19;;;;;;;;;;;;;;;24.89;28.14;98023.13;5090041;28;19920;-62
2023/06/11 11:03:47;;;;;;;;;;;;;;;24.93;28.50;98029.44;5091218;28;20321;-63
2023/06/11 11:06:24;;;;;;;;;;;;;;;24.83;28.84;98020.75;5092054;28;20011;-62
2023/06/11 11:08:55;;;;;;;;;;;;;;;24.89;29.16;98015.56;5093134;28;19927;-62
2023/06/11 11:11:26;;;;;;;;;;;;;;;24.87;29.23;98020.72;5076799;28;19932;-63
2023/06/11 11:13:54;;;;;;;;;;;;;;;24.90;30.18;98011.59;5074573;28;19974;-63
2023/06/11 11:16:22;;;;;;;;;;;;;;;24.91;29.55;98012.38;5099473;28;19927;-63
2023/06/11 11:18:50;;;;;;;;;;;;;;;25.07;29.05;98019.06;5106540;28;19924;-62
2023/06/11 11:21:19;;;;;;;;;;;;;;;25.10;28.93;98023.03;5091911;28;19920;-64
2023/06/11 11:23:47;;;;;;;;;;;;;;;24.99;28.43;98022.28;5067471;28;19924;-63
2023/06/11 11:26:17;;;;;;;;;;;;;;;24.96;28.90;98011.97;5093491;28;20361;-63
2023/06/11 11:28:45;;;;;;;;;;;;;;;24.98;28.66;98015.94;5093491;28;19927;-62
2023/06/11 11:31:13;;;;;;;;;;;;;;;25.12;28.94;98006.75;5077035;28;19920;-62
2023/06/11 11:33:41;;;;;;;;;;;;;;;25.06;28.92;98017.50;5092191;28;20349;-62
2023/06/11 11:36:09;;;;;;;;;;;;;;;25.21;29.00;98012.66;5087539;28;19927;-63
2023/06/11 11:38:40;;;;;;;;;;;;;;;25.14;29.01;98012.69;5090847;28;19968;-63
2023/06/11 11:41:08;;;;;;;;;;;;;;;25.37;29.28;98009.38;5091942;28;19927;-63
2023/06/11 11:43:38;;;;;;;;;;;;;;;25.34;29.19;98018.53;5091568;28;19962;-63
2023/06/11 11:46:16;;;;;;;;;;;;;;;25.28;29.99;98009.03;5079796;28;19920;-63
2023/06/11 11:48:44;;;;;;;;;;;;;;;25.36;28.50;98012.56;5088952;28;20014;-63
2023/06/11 11:51:13;;;;;;;;;;;;;;;25.42;29.73;98006.16;5087506;28;19920;-63
2023/06/11 11:53:41;;;;;;;;;;;;;;;25.50;28.99;98013.25;5072513;28;20377;-62
2023/06/11 11:56:09;;;;;;;;;;;;;;;25.42;29.34;98005.38;5088025;28;19921;-64
2023/06/11 11:58:40;;;;;;;;;;;;;;;25.49;31.34;97989.41;5090619;28;20415;-63
2023/06/11 12:01:09;;;;;;;;;;;;;;;25.53;31.23;98001.31;5086481;28;19931;-63
2023/06/11 12:03:38;;;;;;;;;;;;;;;25.61;29.59;97994.47;5052067;28;19920;-63
2023/06/11 12:06:07;;;;;;;;;;;;;;;25.67;28.70;97996.81;5053612;28;19920;-62
2023/06/11 12:08:35;;;;;;;;;;;;;;;25.55;29.30;97995.34;5064747;28;19925;-63
2023/06/11 12:11:06;;;;;;;;;;;;;;;25.61;29.61;97997.25;5058819;28;19974;-63
2023/06/11 12:13:35;;;;;;;;;;;;;;;25.76;29.54;97992.41;5054200;28;20275;-63
2023/06/11 12:16:04;;;;;;;;;;;;;;;25.59;30.97;97984.97;5045570;28;20540;-63
2023/06/11 12:18:33;;;;;;;;;;;;;;;25.55;29.26;97995.34;5056334;28;19920;-63
2023/06/11 12:21:01;;;;;;;;;;;;;;;25.50;30.01;97996.56;5071559;28;19925;-64
2023/06/11 12:23:29;;;;;;;;;;;;;;;25.59;30.76;97987.75;5067374;28;20381;-63
2023/06/11 12:25:56;;;;;;;;;;;;;;;25.66;30.80;97989.69;5068899;28;19921;-63
2023/06/11 12:28:25;;;;;;;;;;;;;;;25.93;29.33;97992.66;5094174;28;20250;-63
2023/06/11 12:30:52;;;;;;;;;;;;;;;25.82;30.58;97985.19;5063146;28;20439;-62
2023/06/11 12:33:24;;;;;;;;;;;;;;;25.91;29.18;97992.28;5068000;28;19924;-63
2023/06/11 12:35:52;;;;;;;;;;;;;;;25.63;29.92;97979.41;5071220;28;19981;-63
2023/06/11 12:38:20;;;;;;;;;;;;;;;25.47;29.29;97991.03;5069800;28;19921;-63
2023/06/11 12:40:48;;;;;;;;;;;;;;;25.33;30.39;97991.91;5084817;28;20011;-63
2023/06/11 12:43:16;;;;;;;;;;;;;;;25.38;29.48;97985.94;5058200;28;19924;-63
2023/06/11 12:45:44;;;;;;;;;;;;;;;25.46;29.34;97979.13;5067123;28;19921;-63
2023/06/11 12:48:14;;;;;;;;;;;;;;;25.44;29.70;97980.72;5091043;28;19923;-63
2023/06/11 12:50:44;;;;;;;;;;;;;;;25.47;29.73;97986.25;5091438;28;20334;-63
2023/06/11 12:53:11;;;;;;;;;;;;;;;25.24;29.88;97986.78;5089501;28;20319;-63
2023/06/11 12:55:39;;;;;;;;;;;;;;;25.38;30.63;97988.72;5092136;28;19928;-63
2023/06/11 12:58:07;;;;;;;;;;;;;;;25.34;28.94;97982.38;5082674;28;19920;-63